Time,TemperatureF,DewpointF,PressureIn,WindDirection,WindDirectionDegrees,WindSpeedMPH,WindSpeedGustMPH,Humidity,HourlyPrecipIn,Conditions,Clouds,dailyrainin,SoftwareType,DateUTC
2013-07-13 00:03:00,82.0,70.0,29.94,NE,45,2.3,2.3,67,0.00,CLR,,0.00,WeatherDisplay:10.37,2013-07-13 05:03:00,
2013-07-13 00:08:00,82.0,70.0,29.94,ESE,112,3.5,3.5,67,0.00,CLR,,0.00,WeatherDisplay:10.37,2013-07-13 05:08:00,
2013-07-13 00:13:00,81.9,69.8,29.94,ENE,68,3.5,3.5,67,0.00,CLR,,0.00,WeatherDisplay:10.37,2013-07-13 05:13:00,
2013-07-13 00:18:00,81.7,70.1,29.94,NE,45,3.5,3.5,68,0.00,CLR,,0.00,WeatherDisplay:10.37,2013-07-13 05:18:00,
2013-07-13 00:23:00,81.7,70.1,29.94,North,0,2.3,2.3,68,0.00,CLR,,0.00,WeatherDisplay:10.37,2013-07-13 05:23:00,
2013-07-13 00:28:00,81.5,69.9,29.94,NNE,22,4.0,4.0,68,0.00,CLR,,0.00,WeatherDisplay:10.37,2013-07-13 05:28:00,
2013-07-13 00:33:00,81.5,69.9,29.94,NE,45,3.5,3.5,68,0.00,CLR,,0.00,WeatherDisplay:10.37,2013-07-13 05:33:00,
2013-07-13 00:38:00,81.3,69.7,29.94,SE,135,3.1,3.1,68,0.00,CLR,,0.00,WeatherDisplay:10.37,2013-07-13 05:38:00,
2013-07-13 00:43:00,81.1,69.6,29.94,ENE,68,1.2,1.2,68,0.00,CLR,,0.00,WeatherDisplay:10.37,2013-07-13 05:43:00,
2013-07-13 00:48:00,81.0,69.8,29.94,East,90,2.0,2.0,69,0.00,CLR,,0.00,WeatherDisplay:10.37,2013-07-13 05:48:00,
2013-07-13 00:53:00,81.0,69.8,29.94,NE,45,2.3,2.3,69,0.00,CLR,,0.00,WeatherDisplay:10.37,2013-07-13 05:53:00,
2013-07-13 00:58:00,80.8,70.1,29.94,NNE,22,1.2,1.2,70,0.00,CLR,,0.00,WeatherDisplay:10.37,2013-07-13 05:58:00,
2013-07-13 01:03:00,80.6,69.5,29.94,East,90,2.4,2.4,69,0.00,CLR,,0.00,WeatherDisplay:10.37,2013-07-13 06:03:00,
2013-07-13 01:08:00,80.6,69.9,29.94,East,90,3.5,3.5,70,0.00,CLR,,0.00,WeatherDisplay:10.37,2013-07-13 06:08:00,
2013-07-13 01:13:00,80.4,70.2,29.94,ENE,68,2.3,2.3,71,0.00,CLR,,0.00,WeatherDisplay:10.37,2013-07-13 06:13:00,
2013-07-13 01:18:00,80.4,70.2,29.94,NE,45,3.5,3.5,71,0.00,CLR,,0.00,WeatherDisplay:10.37,2013-07-13 06:18:00,
2013-07-13 01:23:00,80.2,70.4,29.94,ESE,112,2.6,2.6,72,0.00,CLR,,0.00,WeatherDisplay:10.37,2013-07-13 06:23:00,
2013-07-13 01:28:00,80.2,70.8,29.94,ESE,112,2.3,2.3,73,0.00,CLR,,0.00,WeatherDisplay:10.37,2013-07-13 06:28:00,
2013-07-13 01:33:00,80.1,70.6,29.94,East,90,2.4,2.4,73,0.00,CLR,,0.00,WeatherDisplay:10.37,2013-07-13 06:33:00,
2013-07-13 01:38:00,80.1,70.6,29.94,NE,45,2.6,2.6,73,0.00,CLR,,0.00,WeatherDisplay:10.37,2013-07-13 06:38:00,
2013-07-13 01:43:00,80.1,71.0,29.94,NE,45,2.3,2.6,74,0.00,CLR,,0.00,WeatherDisplay:10.37,2013-07-13 06:43:00,
2013-07-13 01:48:00,80.1,71.0,29.94,SE,135,2.9,2.9,74,0.00,CLR,,0.00,WeatherDisplay:10.37,2013-07-13 06:48:00,
2013-07-13 01:53:00,80.1,71.0,29.94,East,90,2.6,2.6,74,0.00,CLR,,0.00,WeatherDisplay:10.37,2013-07-13 06:53:00,
2013-07-13 01:58:00,79.9,71.2,29.94,NNE,22,3.5,3.5,75,0.00,CLR,,0.00,WeatherDisplay:10.37,2013-07-13 06:58:00,
2013-07-13 02:03:00,79.9,71.2,29.94,NNW,338,3.8,3.8,75,0.00,CLR,,0.00,WeatherDisplay:10.37,2013-07-13 07:03:00,
2013-07-13 02:08:00,79.9,71.2,29.94,SE,135,3.8,3.8,75,0.00,CLR,,0.00,WeatherDisplay:10.37,2013-07-13 07:08:00,
2013-07-13 02:13:00,79.9,71.2,29.94,NE,45,3.5,3.5,75,0.00,CLR,,0.00,WeatherDisplay:10.37,2013-07-13 07:13:00,
2013-07-13 02:18:00,79.9,71.2,29.94,NNW,338,2.3,3.6,75,0.00,CLR,,0.00,WeatherDisplay:10.37,2013-07-13 07:18:00,
2013-07-13 02:23:00,79.9,71.2,29.94,ENE,68,3.5,3.5,75,0.00,CLR,,0.00,WeatherDisplay:10.37,2013-07-13 07:23:00,
2013-07-13 02:28:00,79.9,71.2,29.94,NNE,22,3.8,3.8,75,0.00,CLR,,0.00,WeatherDisplay:10.37,2013-07-13 07:28:00,
2013-07-13 02:33:00,79.9,71.2,29.94,ESE,112,3.5,3.6,75,0.00,CLR,,0.00,WeatherDisplay:10.37,2013-07-13 07:33:00,
2013-07-13 02:38:00,79.9,71.2,29.94,East,90,4.6,4.6,75,0.00,CLR,,0.00,WeatherDisplay:10.37,2013-07-13 07:38:00,
2013-07-13 02:43:00,79.9,70.8,29.94,North,0,2.9,2.9,74,0.00,CLR,,0.00,WeatherDisplay:10.37,2013-07-13 07:43:00,
2013-07-13 02:48:00,79.9,70.8,29.94,WSW,248,1.2,1.6,74,0.00,CLR,,0.00,WeatherDisplay:10.37,2013-07-13 07:48:00,
2013-07-13 02:53:00,79.9,70.8,29.94,WSW,248,1.2,1.6,74,0.00,CLR,,0.00,WeatherDisplay:10.37,2013-07-13 07:53:00,
2013-07-13 02:58:00,79.9,70.8,29.94,North,0,2.3,2.9,74,0.00,CLR,,0.00,WeatherDisplay:10.37,2013-07-13 07:58:00,
2013-07-13 03:03:00,79.7,70.7,29.94,NNW,338,3.5,3.5,74,0.00,CLR,,0.00,WeatherDisplay:10.37,2013-07-13 08:03:00,
2013-07-13 03:08:00,79.7,70.7,29.94,NNW,338,3.5,3.5,74,0.00,CLR,,0.00,WeatherDisplay:10.37,2013-07-13 08:08:00,
2013-07-13 03:13:00,79.5,70.9,29.94,SE,135,0.0,0.9,75,0.00,CLR,,0.00,WeatherDisplay:10.37,2013-07-13 08:13:00,
2013-07-13 03:18:00,79.3,70.7,29.94,NE,45,2.4,2.4,75,0.00,CLR,,0.00,WeatherDisplay:10.37,2013-07-13 08:18:00,
2013-07-13 03:23:00,79.3,70.7,29.94,NE,45,2.4,2.4,75,0.00,CLR,,0.00,WeatherDisplay:10.37,2013-07-13 08:23:00,
2013-07-13 03:28:00,79.2,70.5,29.94,NE,45,2.4,2.4,75,0.00,CLR,,0.00,WeatherDisplay:10.37,2013-07-13 08:28:00,
2013-07-13 03:33:00,79.0,70.4,29.94,East,90,2.3,2.4,75,0.00,CLR,,0.00,WeatherDisplay:10.37,2013-07-13 08:33:00,
2013-07-13 03:38:00,79.0,70.8,29.94,ENE,68,1.6,1.6,76,0.00,CLR,,0.00,WeatherDisplay:10.37,2013-07-13 08:38:00,
2013-07-13 03:43:00,78.8,70.2,29.94,ENE,68,1.6,1.6,75,0.00,CLR,,0.00,WeatherDisplay:10.37,2013-07-13 08:43:00,
2013-07-13 03:49:00,78.6,70.4,29.94,NNE,22,3.5,3.5,76,0.00,CLR,,0.00,WeatherDisplay:10.37,2013-07-13 08:49:00,
2013-07-13 03:54:00,78.6,70.4,29.94,NE,45,1.6,2.0,76,0.00,CLR,,0.00,WeatherDisplay:10.37,2013-07-13 08:54:00,
2013-07-13 03:59:00,78.6,70.4,29.94,NE,45,1.6,2.0,76,0.00,CLR,,0.00,WeatherDisplay:10.37,2013-07-13 08:59:00,
2013-07-13 04:04:00,78.4,70.2,29.94,NE,45,1.6,2.0,76,0.00,CLR,,0.00,WeatherDisplay:10.37,2013-07-13 09:04:00,
2013-07-13 04:09:00,78.4,70.2,29.94,ESE,112,3.8,3.8,76,0.00,CLR,,0.00,WeatherDisplay:10.37,2013-07-13 09:09:00,
2013-07-13 04:14:00,78.3,70.1,29.94,ESE,112,3.8,3.8,76,0.00,CLR,,0.00,WeatherDisplay:10.37,2013-07-13 09:14:00,
2013-07-13 04:19:00,78.3,70.1,29.94,ESE,112,3.8,3.8,76,0.00,CLR,,0.00,WeatherDisplay:10.37,2013-07-13 09:19:00,
2013-07-13 04:24:00,78.1,69.9,29.94,ESE,112,3.8,3.8,76,0.00,CLR,,0.00,WeatherDisplay:10.37,2013-07-13 09:24:00,
2013-07-13 04:29:00,77.9,69.7,29.94,ESE,112,3.8,3.8,76,0.00,CLR,,0.00,WeatherDisplay:10.37,2013-07-13 09:29:00,
2013-07-13 04:34:00,77.9,69.7,29.94,ESE,112,3.8,3.8,76,0.00,CLR,,0.00,WeatherDisplay:10.37,2013-07-13 09:34:00,
2013-07-13 04:39:00,77.9,70.1,29.94,ESE,112,3.8,3.8,77,0.00,CLR,,0.00,WeatherDisplay:10.37,2013-07-13 09:39:00,
2013-07-13 04:44:00,77.7,69.5,29.94,ESE,112,3.8,3.8,76,0.00,CLR,,0.00,WeatherDisplay:10.37,2013-07-13 09:44:00,
2013-07-13 04:49:00,77.7,69.9,29.94,ESE,112,3.8,3.8,77,0.00,CLR,,0.00,WeatherDisplay:10.37,2013-07-13 09:49:00,
2013-07-13 04:54:00,77.7,69.9,29.94,ESE,112,3.8,3.8,77,0.00,CLR,,0.00,WeatherDisplay:10.37,2013-07-13 09:54:00,
2013-07-13 04:59:00,77.5,70.1,29.97,ESE,112,3.8,3.8,78,0.00,CLR,,0.00,WeatherDisplay:10.37,2013-07-13 09:59:00,
2013-07-13 05:04:00,77.4,70.0,29.97,ESE,112,3.8,3.8,78,0.00,CLR,,0.00,WeatherDisplay:10.37,2013-07-13 10:04:00,
2013-07-13 05:09:00,77.4,70.0,29.97,ESE,112,3.8,3.8,78,0.00,CLR,,0.00,WeatherDisplay:10.37,2013-07-13 10:09:00,
2013-07-13 05:14:00,77.2,69.8,29.97,ESE,112,3.8,3.8,78,0.00,CLR,,0.00,WeatherDisplay:10.37,2013-07-13 10:14:00,
2013-07-13 05:19:00,77.0,70.0,29.97,ESE,112,3.8,3.8,79,0.00,CLR,,0.00,WeatherDisplay:10.37,2013-07-13 10:19:00,
2013-07-13 05:24:00,77.0,70.0,29.97,ESE,112,3.8,3.8,79,0.00,CLR,,0.00,WeatherDisplay:10.37,2013-07-13 10:24:00,
2013-07-13 05:29:00,76.8,70.2,29.97,ESE,112,3.8,3.8,80,0.00,CLR,,0.00,WeatherDisplay:10.37,2013-07-13 10:29:00,
2013-07-13 05:34:00,76.8,70.2,29.97,ESE,112,3.8,3.8,80,0.00,CLR,,0.00,WeatherDisplay:10.37,2013-07-13 10:34:00,
2013-07-13 05:39:00,76.6,70.0,29.97,ESE,112,3.8,3.8,80,0.00,CLR,,0.00,WeatherDisplay:10.37,2013-07-13 10:39:00,
2013-07-13 05:44:00,76.6,70.0,29.97,ESE,112,3.8,3.8,80,0.00,CLR,,0.00,WeatherDisplay:10.37,2013-07-13 10:44:00,
2013-07-13 05:49:00,76.5,69.8,29.97,ESE,112,3.8,3.8,80,0.00,CLR,,0.00,WeatherDisplay:10.37,2013-07-13 10:49:00,
2013-07-13 05:54:00,76.3,69.7,29.97,ESE,112,3.8,3.8,80,0.00,CLR,,0.00,WeatherDisplay:10.37,2013-07-13 10:54:00,
2013-07-13 05:59:00,76.3,69.7,29.97,ESE,112,3.8,3.8,80,0.00,CLR,,0.00,WeatherDisplay:10.37,2013-07-13 10:59:00,
2013-07-13 06:04:00,76.3,69.7,29.97,ESE,112,3.8,3.8,80,0.00,CLR,,0.00,WeatherDisplay:10.37,2013-07-13 11:04:00,
2013-07-13 06:09:00,76.3,69.7,29.97,ESE,112,3.8,3.8,80,0.00,CLR,,0.00,WeatherDisplay:10.37,2013-07-13 11:09:00,
2013-07-13 06:14:00,76.1,69.5,29.97,ESE,112,3.8,3.8,80,0.00,CLR,,0.00,WeatherDisplay:10.37,2013-07-13 11:14:00,
2013-07-13 06:19:00,76.1,69.5,29.97,ESE,112,3.8,3.8,80,0.00,CLR,,0.00,WeatherDisplay:10.37,2013-07-13 11:19:00,
2013-07-13 06:24:00,76.1,69.1,29.97,ESE,112,3.8,3.8,79,0.00,CLR,,0.00,WeatherDisplay:10.37,2013-07-13 11:24:00,
2013-07-13 06:29:00,75.9,68.9,30.00,ESE,112,3.8,3.8,79,0.00,CLR,,0.00,WeatherDisplay:10.37,2013-07-13 11:29:00,
2013-07-13 06:34:00,75.9,68.9,30.00,ESE,112,3.8,3.8,79,0.00,CLR,,0.00,WeatherDisplay:10.37,2013-07-13 11:34:00,
2013-07-13 06:39:00,75.9,68.9,30.00,ESE,112,3.8,3.8,79,0.00,CLR,,0.00,WeatherDisplay:10.37,2013-07-13 11:39:00,
2013-07-13 06:44:00,75.9,68.6,30.00,ESE,112,3.8,3.8,78,0.00,CLR,,0.00,WeatherDisplay:10.37,2013-07-13 11:44:00,
2013-07-13 06:49:00,75.9,68.6,30.00,ESE,112,3.8,3.8,78,0.00,CLR,,0.00,WeatherDisplay:10.37,2013-07-13 11:49:00,
2013-07-13 06:54:00,75.7,68.4,30.00,ESE,112,3.8,3.8,78,0.00,CLR,,0.00,WeatherDisplay:10.37,2013-07-13 11:54:00,
2013-07-13 06:59:00,75.7,68.4,30.03,ESE,112,3.8,3.8,78,0.00,CLR,,0.00,WeatherDisplay:10.37,2013-07-13 11:59:00,
2013-07-13 07:04:00,75.7,68.0,30.03,ESE,112,3.8,3.8,77,0.00,CLR,,0.00,WeatherDisplay:10.37,2013-07-13 12:04:00,
2013-07-13 07:09:00,75.7,68.0,30.03,ESE,112,2.9,2.9,77,0.00,CLR,,0.00,WeatherDisplay:10.37,2013-07-13 12:09:00,
2013-07-13 07:14:00,75.7,68.0,30.03,ESE,112,2.9,2.9,77,0.00,CLR,,0.00,WeatherDisplay:10.37,2013-07-13 12:14:00,
2013-07-13 07:19:00,75.7,68.0,30.03,NNE,22,3.3,3.6,77,0.00,CLR,,0.00,WeatherDisplay:10.37,2013-07-13 12:19:00,
2013-07-13 07:24:00,75.7,68.0,30.03,East,90,5.8,5.8,77,0.00,CLR,,0.00,WeatherDisplay:10.37,2013-07-13 12:24:00,
2013-07-13 07:29:00,75.8,68.0,30.03,East,79,2.0,6.0,77,0.00,CLR,,0.00,WeatherDisplay:10.37,2013-07-13 12:29:00,
2013-07-13 07:34:00,76.1,67.6,30.03,SE,135,3.5,3.5,75,0.00,SCT,,0.00,WeatherDisplay:10.37,2013-07-13 12:34:00,
2013-07-13 07:39:00,76.1,67.6,30.03,SE,135,3.5,3.5,75,0.00,SCT,,0.00,WeatherDisplay:10.37,2013-07-13 12:39:00,
2013-07-13 07:44:00,76.1,67.6,30.03,SE,135,3.0,3.0,75,0.00,SCT,,0.00,WeatherDisplay:10.37,2013-07-13 12:44:00,
2013-07-13 07:49:00,76.1,67.6,30.03,East,90,4.6,4.6,75,0.00,SCT,,0.00,WeatherDisplay:10.37,2013-07-13 12:49:00,
2013-07-13 07:54:00,76.1,67.6,30.03,ENE,72,2.0,5.0,75,0.00,SCT,,0.00,WeatherDisplay:10.37,2013-07-13 12:54:00,
2013-07-13 07:59:00,77.5,67.4,30.03,ENE,66,3.0,6.0,71,0.00,SCT,,0.00,WeatherDisplay:10.37,2013-07-13 12:59:00,
2013-07-13 08:04:00,77.5,67.4,30.03,ENE,68,4.9,4.9,71,0.00,BKN,,0.00,WeatherDisplay:10.37,2013-07-13 13:04:00,
2013-07-13 08:09:00,77.5,67.4,30.03,East,87,5.0,6.0,71,0.00,BKN,,0.00,WeatherDisplay:10.37,2013-07-13 13:09:00,
2013-07-13 08:14:00,77.5,67.4,30.06,ENE,76,5.0,7.0,71,0.00,BKN,,0.00,WeatherDisplay:10.37,2013-07-13 13:14:00,
2013-07-13 08:19:00,77.5,67.4,30.06,East,82,5.0,6.0,71,0.00,BKN,,0.00,WeatherDisplay:10.37,2013-07-13 13:19:00,
2013-07-13 08:24:00,78.6,66.7,30.06,East,84,5.0,10.0,67,0.00,BKN,,0.00,WeatherDisplay:10.37,2013-07-13 13:24:00,
2013-07-13 08:29:00,78.8,66.0,30.06,NNE,22,5.8,5.8,65,0.00,BKN,,0.00,WeatherDisplay:10.37,2013-07-13 13:29:00,
2013-07-13 08:34:00,79.0,65.8,30.06,East,91,6.0,9.0,64,0.00,CLR,,0.00,WeatherDisplay:10.37,2013-07-13 13:34:00,
2013-07-13 08:39:00,79.2,65.9,30.06,ENE,68,5.8,5.8,64,0.00,CLR,,0.00,WeatherDisplay:10.37,2013-07-13 13:39:00,
2013-07-13 08:44:00,79.3,65.2,30.06,ESE,112,8.1,8.1,62,0.00,CLR,,0.00,WeatherDisplay:10.37,2013-07-13 13:44:00,
2013-07-13 08:49:00,79.5,65.4,30.06,ENE,73,5.0,7.0,62,0.00,CLR,,0.00,WeatherDisplay:10.37,2013-07-13 13:49:00,
2013-07-13 08:54:00,79.9,65.7,30.06,ENE,73,2.0,7.0,62,0.00,CLR,,0.00,WeatherDisplay:10.37,2013-07-13 13:54:00,
2013-07-13 08:59:00,80.1,65.9,30.06,East,90,6.9,6.9,62,0.00,CLR,,0.00,WeatherDisplay:10.37,2013-07-13 13:59:00,
2013-07-13 09:04:00,80.2,65.6,30.06,East,87,6.0,7.0,61,0.00,CLR,,0.00,WeatherDisplay:10.37,2013-07-13 14:04:00,
2013-07-13 09:09:00,80.6,65.4,30.06,East,90,5.9,5.9,60,0.00,CLR,,0.00,WeatherDisplay:10.37,2013-07-13 14:09:00,
2013-07-13 09:14:00,80.8,65.6,30.09,ENE,77,5.0,8.0,60,0.00,CLR,,0.00,WeatherDisplay:10.37,2013-07-13 14:14:00,
2013-07-13 09:19:00,81.0,64.8,30.09,East,82,6.0,8.0,58,0.00,CLR,,0.00,WeatherDisplay:10.37,2013-07-13 14:19:00,
2013-07-13 09:24:00,81.1,65.0,30.09,East,90,6.4,6.4,58,0.00,CLR,,0.00,WeatherDisplay:10.37,2013-07-13 14:24:00,
2013-07-13 09:29:00,81.3,65.1,30.06,SE,135,5.8,5.8,58,0.00,CLR,,0.00,WeatherDisplay:10.37,2013-07-13 14:29:00,
2013-07-13 09:34:00,81.7,65.0,30.06,NE,45,4.9,4.9,57,0.00,CLR,,0.00,WeatherDisplay:10.37,2013-07-13 14:34:00,
2013-07-13 09:39:00,82.0,65.3,30.06,South,180,5.8,5.8,57,0.00,CLR,,0.00,WeatherDisplay:10.37,2013-07-13 14:39:00,
2013-07-13 09:44:00,82.2,66.0,30.06,SE,126,5.0,6.0,58,0.00,CLR,,0.00,WeatherDisplay:10.37,2013-07-13 14:44:00,
2013-07-13 09:49:00,82.2,66.0,30.06,East,90,5.6,5.6,58,0.00,CLR,,0.00,WeatherDisplay:10.37,2013-07-13 14:49:00,
2013-07-13 09:54:00,82.6,65.3,30.06,East,90,5.8,5.8,56,0.00,CLR,,0.00,WeatherDisplay:10.37,2013-07-13 14:54:00,
2013-07-13 09:59:00,82.8,64.9,30.06,SE,141,5.0,6.0,55,0.00,CLR,,0.00,WeatherDisplay:10.37,2013-07-13 14:59:00,
2013-07-13 10:04:00,83.1,64.2,30.06,SE,146,6.0,9.0,53,0.00,CLR,,0.00,WeatherDisplay:10.37,2013-07-13 15:04:00,
2013-07-13 10:09:00,83.1,63.7,30.06,SE,135,6.9,6.9,52,0.00,CLR,,0.00,WeatherDisplay:10.37,2013-07-13 15:09:00,
2013-07-13 10:14:00,83.4,64.0,30.06,SE,129,6.0,9.0,52,0.00,CLR,,0.00,WeatherDisplay:10.37,2013-07-13 15:14:00,
2013-07-13 10:19:00,83.5,63.4,30.06,ESE,123,5.0,8.0,51,0.00,CLR,,0.00,WeatherDisplay:10.37,2013-07-13 15:19:00,
2013-07-13 10:24:00,83.5,64.0,30.06,East,90,3.5,3.5,52,0.00,CLR,,0.00,WeatherDisplay:10.37,2013-07-13 15:24:00,
2013-07-13 10:29:00,83.6,64.1,30.06,SE,141,5.0,7.0,52,0.00,CLR,,0.00,WeatherDisplay:10.37,2013-07-13 15:29:00,
2013-07-13 10:34:00,83.8,64.3,30.06,ESE,115,3.0,7.0,52,0.00,CLR,,0.00,WeatherDisplay:10.37,2013-07-13 15:34:00,
2013-07-13 10:39:00,83.8,63.8,30.06,West,270,5.8,5.8,51,0.00,CLR,,0.00,WeatherDisplay:10.37,2013-07-13 15:39:00,
2013-07-13 10:44:00,84.0,65.0,30.06,SE,135,5.8,5.8,53,0.00,CLR,,0.00,WeatherDisplay:10.37,2013-07-13 15:44:00,
2013-07-13 10:49:00,83.8,64.9,30.06,SSW,202,6.9,6.9,53,0.00,CLR,,0.00,WeatherDisplay:10.37,2013-07-13 15:49:00,
2013-07-13 10:54:00,84.2,64.1,30.06,ESE,110,3.0,6.0,51,0.00,CLR,,0.00,WeatherDisplay:10.37,2013-07-13 15:54:00,
2013-07-13 10:59:00,84.2,64.1,30.06,SE,135,5.8,5.8,51,0.00,CLR,,0.00,WeatherDisplay:10.37,2013-07-13 15:59:00,
2013-07-13 11:04:00,84.6,65.0,30.06,SE,135,4.6,4.6,52,0.00,CLR,,0.00,WeatherDisplay:10.37,2013-07-13 16:04:00,
2013-07-13 11:09:00,84.7,65.2,30.06,SE,137,2.0,7.0,52,0.00,CLR,,0.00,WeatherDisplay:10.37,2013-07-13 16:09:00,
2013-07-13 11:14:00,84.7,64.6,30.03,SE,135,6.2,6.2,51,0.00,CLR,,0.00,WeatherDisplay:10.37,2013-07-13 16:14:00,
2013-07-13 11:19:00,84.9,65.3,30.03,NNW,338,4.6,4.6,52,0.00,CLR,,0.00,WeatherDisplay:10.37,2013-07-13 16:19:00,
2013-07-13 11:24:00,85.1,65.5,30.03,SE,132,2.0,7.0,52,0.00,CLR,,0.00,WeatherDisplay:10.37,2013-07-13 16:24:00,
2013-07-13 11:29:00,85.3,65.1,30.03,ESE,112,4.6,4.6,51,0.00,CLR,,0.00,WeatherDisplay:10.37,2013-07-13 16:29:00,
2013-07-13 11:34:00,85.3,64.0,30.03,ENE,64,3.0,6.0,49,0.00,CLR,,0.00,WeatherDisplay:10.37,2013-07-13 16:34:00,
2013-07-13 11:39:00,85.5,64.7,30.03,East,85,5.0,7.0,50,0.00,CLR,,0.00,WeatherDisplay:10.37,2013-07-13 16:39:00,
2013-07-13 11:44:00,85.6,64.3,30.03,East,85,3.0,7.0,49,0.00,CLR,,0.00,WeatherDisplay:10.37,2013-07-13 16:44:00,
2013-07-13 11:49:00,85.8,63.9,30.03,ENE,63,3.0,5.0,48,0.00,CLR,,0.00,WeatherDisplay:10.37,2013-07-13 16:49:00,
2013-07-13 11:54:00,85.8,63.9,30.03,ENE,68,5.8,5.8,48,0.00,CLR,,0.00,WeatherDisplay:10.37,2013-07-13 16:54:00,
2013-07-13 11:59:00,86.0,64.6,30.03,East,90,6.9,6.9,49,0.00,CLR,,0.00,WeatherDisplay:10.37,2013-07-13 16:59:00,
2013-07-13 12:04:00,86.0,64.6,30.03,ESE,104,2.0,5.0,49,0.00,CLR,,0.00,WeatherDisplay:10.37,2013-07-13 17:04:00,
2013-07-13 12:09:00,86.0,64.6,30.03,SE,135,5.8,5.8,49,0.00,CLR,,0.00,WeatherDisplay:10.37,2013-07-13 17:09:00,
2013-07-13 12:14:00,86.2,64.8,30.03,East,90,4.6,4.6,49,0.00,CLR,,0.00,WeatherDisplay:10.37,2013-07-13 17:14:00,
2013-07-13 12:19:00,86.2,64.8,30.03,East,90,2.0,5.0,49,0.00,CLR,,0.00,WeatherDisplay:10.37,2013-07-13 17:19:00,
2013-07-13 12:24:00,86.4,64.9,30.03,East,87,3.0,5.0,49,0.00,CLR,,0.00,WeatherDisplay:10.37,2013-07-13 17:24:00,
2013-07-13 12:29:00,86.7,65.3,30.03,SSE,158,5.8,5.8,49,0.00,CLR,,0.00,WeatherDisplay:10.37,2013-07-13 17:29:00,
2013-07-13 12:34:00,86.8,65.3,30.03,ESE,107,2.0,6.0,49,0.00,CLR,,0.00,WeatherDisplay:10.37,2013-07-13 17:34:00,
2013-07-13 12:39:00,86.9,65.4,30.03,ENE,70,2.0,6.0,49,0.00,CLR,,0.00,WeatherDisplay:10.37,2013-07-13 17:39:00,
2013-07-13 12:44:00,87.0,64.9,30.03,NE,40,3.0,6.0,48,0.00,CLR,,0.00,WeatherDisplay:10.37,2013-07-13 17:44:00,
2013-07-13 12:49:00,87.1,65.0,30.03,ENE,68,5.8,5.8,48,0.00,CLR,,0.00,WeatherDisplay:10.37,2013-07-13 17:49:00,
2013-07-13 12:54:00,87.1,65.0,30.03,East,90,3.5,3.5,48,0.00,CLR,,0.00,WeatherDisplay:10.37,2013-07-13 17:54:00,
2013-07-13 12:59:00,87.3,64.6,30.03,ENE,70,3.0,5.0,47,0.00,CLR,,0.00,WeatherDisplay:10.37,2013-07-13 17:59:00,
2013-07-13 13:04:00,87.4,65.3,30.03,NE,54,3.0,6.0,48,0.00,CLR,,0.00,WeatherDisplay:10.37,2013-07-13 18:04:00,
2013-07-13 13:09:00,87.6,64.3,30.03,ENE,58,5.0,6.0,46,0.00,CLR,,0.00,WeatherDisplay:10.37,2013-07-13 18:09:00,
2013-07-13 13:14:00,87.8,63.8,30.00,NE,42,3.0,7.0,45,0.00,CLR,,0.00,WeatherDisplay:10.37,2013-07-13 18:14:00,
2013-07-13 13:19:00,88.2,64.1,30.00,SE,135,4.6,4.6,45,0.00,CLR,,0.00,WeatherDisplay:10.37,2013-07-13 18:19:00,
2013-07-13 13:24:00,88.2,64.1,30.00,West,270,5.8,5.8,45,0.00,CLR,,0.00,WeatherDisplay:10.37,2013-07-13 18:24:00,
2013-07-13 13:29:00,88.7,64.0,30.00,NE,37,2.0,6.0,44,0.00,CLR,,0.00,WeatherDisplay:10.37,2013-07-13 18:29:00,
2013-07-13 13:34:00,88.7,64.6,30.00,ENE,68,2.0,6.0,45,0.00,CLR,,0.00,WeatherDisplay:10.37,2013-07-13 18:34:00,
2013-07-13 13:39:00,88.9,64.8,30.00,South,180,3.5,3.5,45,0.00,CLR,,0.00,WeatherDisplay:10.37,2013-07-13 18:39:00,
2013-07-13 13:44:00,88.9,64.8,30.00,SE,142,2.0,5.0,45,0.00,CLR,,0.00,WeatherDisplay:10.37,2013-07-13 18:44:00,
2013-07-13 13:49:00,88.9,64.8,30.00,North,0,4.6,4.6,45,0.00,CLR,,0.00,WeatherDisplay:10.37,2013-07-13 18:49:00,
2013-07-13 13:54:00,89.2,64.5,30.00,North,0,5.8,5.8,44,0.00,CLR,,0.00,WeatherDisplay:10.37,2013-07-13 18:54:00,
2013-07-13 13:59:00,89.2,65.8,30.00,NNE,17,2.0,5.0,46,0.00,CLR,,0.00,WeatherDisplay:10.37,2013-07-13 18:59:00,
2013-07-13 14:04:00,89.4,65.3,30.00,North,0,5.8,5.8,45,0.00,CLR,,0.00,WeatherDisplay:10.37,2013-07-13 19:04:00,
2013-07-13 14:09:00,89.5,65.3,30.00,North,0,1.0,6.0,45,0.00,CLR,,0.00,WeatherDisplay:10.37,2013-07-13 19:09:00,
2013-07-13 14:14:00,89.2,65.1,30.00,North,10,2.0,5.0,45,0.00,CLR,,0.00,WeatherDisplay:10.37,2013-07-13 19:14:00,
2013-07-13 14:19:00,89.1,65.0,30.00,NNW,338,6.0,6.0,45,0.00,CLR,,0.00,WeatherDisplay:10.37,2013-07-13 19:19:00,
2013-07-13 14:24:00,89.6,64.8,30.00,NNE,16,5.0,8.0,44,0.00,CLR,,0.00,WeatherDisplay:10.37,2013-07-13 19:24:00,
2013-07-13 14:29:00,89.6,64.8,30.00,ENE,68,3.5,4.7,44,0.00,CLR,,0.00,WeatherDisplay:10.37,2013-07-13 19:29:00,
2013-07-13 14:34:00,89.6,64.1,30.00,NNE,14,3.0,5.0,43,0.00,CLR,,0.00,WeatherDisplay:10.37,2013-07-13 19:34:00,
2013-07-13 14:39:00,89.6,64.8,30.00,NNE,30,2.0,5.0,44,0.00,CLR,,0.00,WeatherDisplay:10.37,2013-07-13 19:39:00,
2013-07-13 14:44:00,90.0,64.5,29.97,East,90,3.5,3.5,43,0.00,CLR,,0.00,WeatherDisplay:10.37,2013-07-13 19:44:00,
2013-07-13 14:49:00,90.1,64.6,29.97,ESE,112,4.6,4.6,43,0.00,CLR,,0.00,WeatherDisplay:10.37,2013-07-13 19:49:00,
2013-07-13 14:54:00,90.0,65.1,29.97,NNE,27,1.0,5.0,44,0.00,CLR,,0.00,WeatherDisplay:10.37,2013-07-13 19:54:00,
2013-07-13 14:59:00,90.0,65.8,29.97,SE,135,3.8,3.8,45,0.00,CLR,,0.00,WeatherDisplay:10.37,2013-07-13 19:59:00,
2013-07-13 15:04:00,90.1,65.3,29.97,East,80,2.0,6.0,44,0.00,CLR,,0.00,WeatherDisplay:10.37,2013-07-13 20:04:00,
2013-07-13 15:09:00,89.8,66.2,29.97,SE,135,3.5,3.5,46,0.00,CLR,,0.00,WeatherDisplay:10.37,2013-07-13 20:09:00,
2013-07-13 15:14:00,90.0,65.8,29.97,North,0,4.3,4.3,45,0.00,CLR,,0.00,WeatherDisplay:10.37,2013-07-13 20:14:00,
2013-07-13 15:19:00,90.3,64.8,29.97,North,5,5.0,8.0,43,0.00,CLR,,0.00,WeatherDisplay:10.37,2013-07-13 20:19:00,
2013-07-13 15:24:00,90.7,64.4,29.97,NE,45,2.3,2.3,42,0.00,CLR,,0.00,WeatherDisplay:10.37,2013-07-13 20:24:00,
2013-07-13 15:29:00,90.7,65.8,29.97,NE,45,4.6,4.6,44,0.00,CLR,,0.00,WeatherDisplay:10.37,2013-07-13 20:29:00,
2013-07-13 15:34:00,90.7,67.1,29.97,East,94,2.0,5.0,46,0.00,CLR,,0.00,WeatherDisplay:10.37,2013-07-13 20:34:00,
2013-07-13 15:39:00,90.9,65.3,29.97,East,90,4.6,4.6,43,0.00,CLR,,0.00,WeatherDisplay:10.37,2013-07-13 20:39:00,
2013-07-13 15:44:00,91.2,64.9,29.97,North,0,4.9,4.9,42,0.00,CLR,,0.00,WeatherDisplay:10.37,2013-07-13 20:44:00,
2013-07-13 15:49:00,91.4,65.1,29.97,NNE,18,5.0,7.0,42,0.00,CLR,,0.00,WeatherDisplay:10.37,2013-07-13 20:49:00,
2013-07-13 15:54:00,91.4,64.4,29.97,NNE,13,2.0,9.0,41,0.00,CLR,,0.00,WeatherDisplay:10.37,2013-07-13 20:54:00,
2013-07-13 15:59:00,91.2,64.9,29.94,NNE,22,1.2,0.0,42,0.00,CLR,,0.00,WeatherDisplay:10.37,2013-07-13 20:59:00,
2013-07-13 16:04:00,91.2,64.9,29.94,NE,40,3.0,6.0,42,0.00,CLR,,0.00,WeatherDisplay:10.37,2013-07-13 21:04:00,
2013-07-13 16:09:00,91.4,64.4,29.94,NNW,338,5.8,5.8,41,0.00,CLR,,0.00,WeatherDisplay:10.37,2013-07-13 21:09:00,
2013-07-13 16:14:00,91.8,64.7,29.94,North,0,5.4,5.4,41,0.00,CLR,,0.00,WeatherDisplay:10.37,2013-07-13 21:14:00,
2013-07-13 16:19:00,91.8,64.0,29.94,NNW,338,6.9,6.9,40,0.00,CLR,,0.00,WeatherDisplay:10.37,2013-07-13 21:19:00,
2013-07-13 16:24:00,91.9,64.2,29.94,North,0,3.5,4.9,40,0.00,CLR,,0.00,WeatherDisplay:10.37,2013-07-13 21:24:00,
2013-07-13 16:29:00,92.1,65.0,29.94,ENE,70,2.0,6.0,41,0.00,CLR,,0.00,WeatherDisplay:10.37,2013-07-13 21:29:00,
2013-07-13 16:34:00,92.3,65.2,29.94,East,101,3.0,7.0,41,0.00,CLR,,0.00,WeatherDisplay:10.37,2013-07-13 21:34:00,
2013-07-13 16:39:00,92.1,65.0,29.94,NE,42,3.0,7.0,41,0.00,CLR,,0.00,WeatherDisplay:10.37,2013-07-13 21:39:00,
2013-07-13 16:44:00,92.3,65.2,29.94,NE,37,3.0,7.0,41,0.00,CLR,,0.00,WeatherDisplay:10.37,2013-07-13 21:44:00,
2013-07-13 16:49:00,92.3,65.2,29.94,NE,45,4.6,4.6,41,0.00,CLR,,0.00,WeatherDisplay:10.37,2013-07-13 21:49:00,
2013-07-13 16:54:00,92.3,64.5,29.94,NE,37,5.0,7.0,40,0.00,CLR,,0.00,WeatherDisplay:10.37,2013-07-13 21:54:00,
2013-07-13 16:59:00,92.3,64.5,29.94,NNE,30,2.0,8.0,40,0.00,CLR,,0.00,WeatherDisplay:10.37,2013-07-13 21:59:00,
2013-07-13 17:04:00,92.1,64.3,29.94,East,90,5.9,5.9,40,0.00,CLR,,0.00,WeatherDisplay:10.37,2013-07-13 22:04:00,
2013-07-13 17:09:00,92.1,65.0,29.94,ENE,68,5.0,7.0,41,0.00,CLR,,0.00,WeatherDisplay:10.37,2013-07-13 22:09:00,
2013-07-13 17:14:00,91.9,64.9,29.94,NE,45,5.0,7.0,41,0.00,CLR,,0.00,WeatherDisplay:10.37,2013-07-13 22:14:00,
2013-07-13 17:19:00,91.8,64.7,29.94,NNW,338,8.1,8.1,41,0.00,CLR,,0.00,WeatherDisplay:10.37,2013-07-13 22:19:00,
2013-07-13 17:24:00,91.9,64.2,29.94,NNE,33,6.0,10.0,40,0.00,CLR,,0.00,WeatherDisplay:10.37,2013-07-13 22:24:00,
2013-07-13 17:29:00,92.1,64.3,29.94,NE,49,3.0,6.0,40,0.00,CLR,,0.00,WeatherDisplay:10.37,2013-07-13 22:29:00,
2013-07-13 17:34:00,92.1,65.0,29.94,NNE,22,8.1,8.1,41,0.00,CLR,,0.00,WeatherDisplay:10.37,2013-07-13 22:34:00,
2013-07-13 17:39:00,92.1,65.0,29.94,ENE,77,3.0,6.0,41,0.00,CLR,,0.00,WeatherDisplay:10.37,2013-07-13 22:39:00,
2013-07-13 17:44:00,92.3,65.2,29.94,ENE,64,2.0,6.0,41,0.00,CLR,,0.00,WeatherDisplay:10.37,2013-07-13 22:44:00,
2013-07-13 17:49:00,92.5,64.6,29.94,North,0,5.8,5.8,40,0.00,CLR,,0.00,WeatherDisplay:10.37,2013-07-13 22:49:00,
2013-07-13 17:54:00,92.7,64.1,29.94,NNE,16,6.0,10.0,39,0.00,CLR,,0.00,WeatherDisplay:10.37,2013-07-13 22:54:00,
2013-07-13 17:59:00,92.7,64.1,29.94,NNE,22,8.1,8.1,39,0.00,CLR,,0.00,WeatherDisplay:10.37,2013-07-13 22:59:00,
2013-07-13 18:04:00,92.7,64.1,29.94,NE,53,3.0,8.0,39,0.00,CLR,,0.00,WeatherDisplay:10.37,2013-07-13 23:04:00,
2013-07-13 18:09:00,92.6,64.7,29.94,NE,52,3.0,7.0,40,0.00,CLR,,0.00,WeatherDisplay:10.37,2013-07-13 23:09:00,
2013-07-13 18:14:00,92.3,64.5,29.94,East,90,6.2,6.2,40,0.00,CLR,,0.00,WeatherDisplay:10.37,2013-07-13 23:14:00,
2013-07-13 18:19:00,92.3,63.8,29.94,North,0,5.9,5.9,39,0.00,CLR,,0.00,WeatherDisplay:10.37,2013-07-13 23:19:00,
2013-07-13 18:24:00,92.3,63.8,29.94,NE,45,4.6,4.6,39,0.00,CLR,,0.00,WeatherDisplay:10.37,2013-07-13 23:24:00,
2013-07-13 18:29:00,92.3,63.8,29.91,East,90,5.8,5.8,39,0.00,CLR,,0.00,WeatherDisplay:10.37,2013-07-13 23:29:00,
2013-07-13 18:34:00,92.3,63.8,29.91,NE,42,3.0,6.0,39,0.00,CLR,,0.00,WeatherDisplay:10.37,2013-07-13 23:34:00,
2013-07-13 18:39:00,92.3,63.8,29.91,North,0,5.8,5.8,39,0.00,CLR,,0.00,WeatherDisplay:10.37,2013-07-13 23:39:00,
2013-07-13 18:44:00,92.1,62.9,29.91,ESE,112,8.1,8.1,38,0.00,CLR,,0.00,WeatherDisplay:10.37,2013-07-13 23:44:00,
2013-07-13 18:49:00,92.1,62.9,29.91,NE,45,3.0,8.0,38,0.00,CLR,,0.00,WeatherDisplay:10.37,2013-07-13 23:49:00,
2013-07-13 18:54:00,91.8,62.5,29.91,NNE,22,4.3,4.3,38,0.00,CLR,,0.00,WeatherDisplay:10.37,2013-07-13 23:54:00,
2013-07-13 18:59:00,91.8,62.5,29.91,North,0,6.2,6.2,38,0.00,CLR,,0.00,WeatherDisplay:10.37,2013-07-13 23:59:00,
2013-07-13 19:04:00,91.6,62.4,29.91,ENE,59,6.0,9.0,38,0.00,CLR,,0.00,WeatherDisplay:10.37,2013-07-14 00:04:00,
2013-07-13 19:09:00,91.4,63.0,29.91,ENE,59,3.0,8.0,39,0.00,CLR,,0.00,WeatherDisplay:10.37,2013-07-14 00:09:00,
2013-07-13 19:14:00,91.2,62.8,29.91,ENE,67,5.0,6.0,39,0.00,CLR,,0.00,WeatherDisplay:10.37,2013-07-14 00:14:00,
2013-07-13 19:19:00,90.9,63.2,29.91,ENE,61,6.0,7.0,40,0.00,CLR,,0.00,WeatherDisplay:10.37,2013-07-14 00:19:00,
2013-07-13 19:24:00,90.7,63.0,29.91,SSE,158,4.6,4.6,40,0.00,CLR,,0.00,WeatherDisplay:10.37,2013-07-14 00:24:00,
2013-07-13 19:29:00,90.3,62.7,29.91,ENE,57,5.0,7.0,40,0.00,CLR,,0.00,WeatherDisplay:10.37,2013-07-14 00:29:00,
2013-07-13 19:34:00,90.1,62.6,29.91,North,0,6.2,6.2,40,0.00,CLR,,0.00,WeatherDisplay:10.37,2013-07-14 00:34:00,
2013-07-13 19:39:00,89.6,62.8,29.91,ENE,68,5.8,5.8,41,0.00,CLR,,0.00,WeatherDisplay:10.37,2013-07-14 00:39:00,
2013-07-13 19:44:00,89.4,62.6,29.91,ENE,68,3.0,6.0,41,0.00,CLR,,0.00,WeatherDisplay:10.37,2013-07-14 00:44:00,
2013-07-13 19:49:00,89.1,62.3,29.91,NE,45,5.8,6.0,41,0.00,CLR,,0.00,WeatherDisplay:10.37,2013-07-14 00:49:00,
2013-07-13 19:54:00,88.9,62.8,29.91,NE,45,9.2,9.2,42,0.00,CLR,,0.00,WeatherDisplay:10.37,2013-07-14 00:54:00,
2013-07-13 19:59:00,88.5,62.5,29.91,ENE,62,5.0,6.0,42,0.00,CLR,,0.00,WeatherDisplay:10.37,2013-07-14 00:59:00,
2013-07-13 20:04:00,88.3,62.3,29.91,East,90,4.6,6.0,42,0.00,CLR,,0.00,WeatherDisplay:10.37,2013-07-14 01:04:00,
2013-07-13 20:09:00,88.3,62.3,29.91,NE,52,6.0,9.0,42,0.00,CLR,,0.00,WeatherDisplay:10.37,2013-07-14 01:09:00,
2013-07-13 20:14:00,88.2,62.2,29.91,ENE,63,6.0,9.0,42,0.00,CLR,,0.00,WeatherDisplay:10.37,2013-07-14 01:14:00,
2013-07-13 20:19:00,87.6,62.4,29.91,East,90,5.8,5.8,43,0.00,CLR,,0.00,WeatherDisplay:10.37,2013-07-14 01:19:00,
2013-07-13 20:24:00,87.4,61.5,29.91,ENE,68,5.8,6.0,42,0.00,CLR,,0.00,WeatherDisplay:10.37,2013-07-14 01:24:00,
2013-07-13 20:29:00,87.2,61.4,29.91,NE,56,5.0,7.0,42,0.00,CLR,,0.00,WeatherDisplay:10.37,2013-07-14 01:29:00,
2013-07-13 20:34:00,86.9,61.0,29.91,East,90,6.9,6.9,42,0.00,CLR,,0.00,WeatherDisplay:10.37,2013-07-14 01:34:00,
2013-07-13 20:39:00,86.4,61.2,29.91,ENE,68,4.6,4.6,43,0.00,CLR,,0.00,WeatherDisplay:10.37,2013-07-14 01:39:00,
2013-07-13 20:44:00,86.0,60.9,29.91,NE,45,4.6,4.6,43,0.00,CLR,,0.00,WeatherDisplay:10.37,2013-07-14 01:44:00,
2013-07-13 20:49:00,86.0,60.9,29.91,NE,45,4.6,4.6,43,0.00,CLR,,0.00,WeatherDisplay:10.37,2013-07-14 01:49:00,
2013-07-13 20:54:00,85.6,60.5,29.91,NE,45,3.0,5.0,43,0.00,CLR,,0.00,WeatherDisplay:10.37,2013-07-14 01:54:00,
2013-07-13 20:59:00,85.1,60.7,29.91,NE,45,4.6,4.6,44,0.00,CLR,,0.00,WeatherDisplay:10.37,2013-07-14 01:59:00,
2013-07-13 21:04:00,85.1,60.7,29.91,NE,49,3.0,6.0,44,0.00,CLR,,0.00,WeatherDisplay:10.37,2013-07-14 02:04:00,
2013-07-13 21:09:00,84.7,60.4,29.91,NE,48,3.0,6.0,44,0.00,CLR,,0.00,WeatherDisplay:10.37,2013-07-14 02:09:00,
2013-07-13 21:14:00,84.4,60.1,29.91,East,90,3.5,3.5,44,0.00,CLR,,0.00,WeatherDisplay:10.37,2013-07-14 02:14:00,
2013-07-13 21:19:00,84.2,59.9,29.91,ENE,73,2.0,5.0,44,0.00,CLR,,0.00,WeatherDisplay:10.37,2013-07-14 02:19:00,
2013-07-13 21:24:00,83.8,59.6,29.91,ENE,74,3.0,6.0,44,0.00,CLR,,0.00,WeatherDisplay:10.37,2013-07-14 02:24:00,
2013-07-13 21:29:00,83.8,59.6,29.91,ENE,64,3.0,6.0,44,0.00,CLR,,0.00,WeatherDisplay:10.37,2013-07-14 02:29:00,
2013-07-13 21:34:00,83.5,59.3,29.91,ENE,63,2.0,6.0,44,0.00,CLR,,0.00,WeatherDisplay:10.37,2013-07-14 02:34:00,
2013-07-13 21:39:00,83.1,58.9,29.91,East,90,4.6,4.6,44,0.00,CLR,,0.00,WeatherDisplay:10.37,2013-07-14 02:39:00,
2013-07-13 21:44:00,82.8,58.6,29.94,East,90,5.8,5.8,44,0.00,CLR,,0.00,WeatherDisplay:10.37,2013-07-14 02:44:00,
2013-07-13 21:49:00,82.6,57.8,29.94,NNW,338,4.6,4.6,43,0.00,CLR,,0.00,WeatherDisplay:10.37,2013-07-14 02:49:00,
2013-07-13 21:54:00,82.4,57.7,29.94,NE,52,2.0,5.0,43,0.00,CLR,,0.00,WeatherDisplay:10.37,2013-07-14 02:54:00,
2013-07-13 21:59:00,82.2,57.5,29.94,ESE,112,4.6,4.6,43,0.00,CLR,,0.00,WeatherDisplay:10.37,2013-07-14 02:59:00,
2013-07-13 22:04:00,81.9,57.2,29.94,ENE,70,2.0,4.0,43,0.00,CLR,,0.00,WeatherDisplay:10.37,2013-07-14 03:04:00,
2013-07-13 22:09:00,81.5,56.8,29.94,NE,45,3.5,3.5,43,0.00,CLR,,0.00,WeatherDisplay:10.37,2013-07-14 03:09:00,
2013-07-13 22:14:00,81.1,57.2,29.94,ENE,68,3.5,3.5,44,0.00,CLR,,0.00,WeatherDisplay:10.37,2013-07-14 03:14:00,
2013-07-13 22:19:00,81.0,57.0,29.94,East,83,2.0,5.0,44,0.00,CLR,,0.00,WeatherDisplay:10.37,2013-07-14 03:19:00,
2013-07-13 22:24:00,80.6,56.7,29.94,East,88,1.0,3.0,44,0.00,CLR,,0.00,WeatherDisplay:10.37,2013-07-14 03:24:00,
2013-07-13 22:29:00,80.2,56.3,29.94,NE,45,2.4,2.4,44,0.00,CLR,,0.00,WeatherDisplay:10.37,2013-07-14 03:29:00,
2013-07-13 22:34:00,80.1,56.8,29.94,ESE,111,1.0,3.0,45,0.00,CLR,,0.00,WeatherDisplay:10.37,2013-07-14 03:34:00,
2013-07-13 22:39:00,79.7,56.5,29.94,ESE,112,2.4,2.4,45,0.00,CLR,,0.00,WeatherDisplay:10.37,2013-07-14 03:39:00,
2013-07-13 22:44:00,79.7,56.5,29.91,SE,139,2.0,4.0,45,0.00,CLR,,0.00,WeatherDisplay:10.37,2013-07-14 03:44:00,
2013-07-13 22:49:00,79.3,56.2,29.91,NE,45,0.0,0.0,45,0.00,CLR,,0.00,WeatherDisplay:10.37,2013-07-14 03:49:00,
2013-07-13 22:54:00,79.2,56.6,29.91,SE,135,1.2,0.0,46,0.00,CLR,,0.00,WeatherDisplay:10.37,2013-07-14 03:54:00,
2013-07-13 22:59:00,79.0,56.4,29.91,ESE,104,0.0,3.0,46,0.00,CLR,,0.00,WeatherDisplay:10.37,2013-07-14 03:59:00,
2013-07-13 23:01:00,78.8,56.3,29.91,NNE,22,2.3,2.3,46,0.00,CLR,,0.00,WeatherDisplay:10.37,2013-07-14 04:01:00,
2013-07-13 23:06:00,78.8,56.3,29.91,ENE,68,1.2,1.2,46,0.00,CLR,,0.00,WeatherDisplay:10.37,2013-07-14 04:06:00,
2013-07-13 23:11:00,78.4,56.5,29.91,East,90,1.2,0.0,47,0.00,CLR,,0.00,WeatherDisplay:10.37,2013-07-14 04:11:00,
2013-07-13 23:16:00,78.4,56.5,29.94,SE,135,2.3,2.3,47,0.00,CLR,,0.00,WeatherDisplay:10.37,2013-07-14 04:16:00,
2013-07-13 23:21:00,78.3,56.4,29.94,SE,135,2.3,0.0,47,0.00,CLR,,0.00,WeatherDisplay:10.37,2013-07-14 04:21:00,
2013-07-13 23:26:00,78.1,56.8,29.94,ESE,112,0.0,0.0,48,0.00,CLR,,0.00,WeatherDisplay:10.37,2013-07-14 04:26:00,
2013-07-13 23:31:00,78.1,56.8,29.94,West,270,0.0,0.0,48,0.00,CLR,,0.00,WeatherDisplay:10.37,2013-07-14 04:31:00,
2013-07-13 23:36:00,78.1,56.8,29.94,East,90,1.2,0.0,48,0.00,CLR,,0.00,WeatherDisplay:10.37,2013-07-14 04:36:00,
2013-07-13 23:41:00,78.1,56.8,29.94,East,90,2.3,2.3,48,0.00,CLR,,0.00,WeatherDisplay:10.37,2013-07-14 04:41:00,
2013-07-13 23:46:00,78.1,56.8,29.94,SSE,158,1.2,0.0,48,0.00,CLR,,0.00,WeatherDisplay:10.37,2013-07-14 04:46:00,
2013-07-13 23:51:00,78.1,56.8,29.94,SW,225,1.2,0.0,48,0.00,CLR,,0.00,WeatherDisplay:10.37,2013-07-14 04:51:00,
2013-07-13 23:56:00,78.1,56.8,29.94,SW,225,1.4,1.4,48,0.00,CLR,,0.00,WeatherDisplay:10.37,2013-07-14 04:56:00,